Time;durP1;ratioP1;P1;durP2;ratioP2;P2;SDS_P1;SDS_P2;PMS_P1;PMS_P2;Temp;Humidity;BMP_temperature;BMP_pressure;BME280_temperature;BME280_humidity;BME280_pressure;Samples;Min_cycle;Max_cycle;Signal;HPM_P1;HPM_P2
2022/03/18 00:01:21;;;;;;;12.00;5.40;;;8.00;97.80;;;;;;6275940;22;20153;-88
2022/03/18 00:03:47;;;;;;;8.87;5.17;;;8.00;97.60;;;;;;6275432;22;20154;-88
2022/03/18 00:06:16;;;;;;;13.93;5.00;;;8.10;97.40;;;;;;6276093;22;20150;-88
2022/03/18 00:08:42;;;;;;;11.70;5.10;;;8.10;97.50;;;;;;6276139;22;20583;-88
2022/03/18 00:11:08;;;;;;;10.37;5.00;;;8.10;97.30;;;;;;6276162;22;20146;-88
2022/03/18 00:13:34;;;;;;;9.83;4.37;;;8.10;97.40;;;;;;6275759;22;20591;-88
2022/03/18 00:16:00;;;;;;;13.83;4.90;;;8.10;97.40;;;;;;6276370;22;20153;-88
2022/03/18 00:18:26;;;;;;;14.33;5.50;;;8.10;97.50;;;;;;6275365;22;20182;-88
2022/03/18 00:20:52;;;;;;;15.50;5.20;;;8.20;97.00;;;;;;6274403;22;20145;-87
2022/03/18 00:23:17;;;;;;;10.33;5.67;;;8.20;96.90;;;;;;6274448;22;20143;-87
2022/03/18 00:25:43;;;;;;;11.53;5.23;;;8.00;97.20;;;;;;6274286;22;20212;-87
2022/03/18 00:28:08;;;;;;;12.63;5.23;;;7.90;97.80;;;;;;6274753;22;20464;-87
2022/03/18 00:30:34;;;;;;;10.53;4.33;;;7.90;97.80;;;;;;6276313;22;20537;-87
2022/03/18 00:33:00;;;;;;;11.13;4.87;;;7.80;97.80;;;;;;6276582;22;20165;-87
2022/03/18 00:35:26;;;;;;;10.60;4.57;;;7.70;98.10;;;;;;6276159;22;20181;-87
2022/03/18 00:37:52;;;;;;;13.53;5.00;;;7.70;98.40;;;;;;6276546;22;20184;-87
2022/03/18 00:40:17;;;;;;;13.27;5.00;;;7.60;98.50;;;;;;6276324;22;20157;-87
2022/03/18 00:42:43;;;;;;;12.67;5.07;;;7.80;98.30;;;;;;6275822;22;20154;-87
2022/03/18 00:45:09;;;;;;;11.43;5.00;;;7.60;98.40;;;;;;6275722;22;20477;-87
2022/03/18 00:53:03;;;;;;;10.90;4.43;;;7.30;98.90;;;;;;6278474;22;20153;-87
2022/03/18 00:55:30;;;;;;;11.23;5.27;;;7.20;99.10;;;;;;6276480;22;20146;-87
2022/03/18 00:57:56;;;;;;;9.00;4.70;;;7.10;99.50;;;;;;6276762;22;20173;-87
2022/03/18 01:00:22;;;;;;;12.30;4.90;;;7.10;99.80;;;;;;6276796;22;20149;-87
2022/03/18 01:02:47;;;;;;;6.43;4.40;;;7.10;99.70;;;;;;6276039;22;20211;-86
2022/03/18 01:05:13;;;;;;;10.27;6.50;;;7.00;99.70;;;;;;6275982;22;20140;-86
2022/03/18 01:07:38;;;;;;;9.70;4.67;;;7.00;99.80;;;;;;6276089;22;20143;-86
2022/03/18 01:10:04;;;;;;;15.83;5.93;;;7.00;99.70;;;;;;6276336;22;20565;-86
2022/03/18 01:12:30;;;;;;;10.53;5.73;;;7.10;99.50;;;;;;6275970;22;20162;-86
2022/03/18 01:14:56;;;;;;;12.60;5.83;;;7.20;99.40;;;;;;6274670;22;20154;-86
2022/03/18 01:17:23;;;;;;;10.63;5.33;;;7.30;99.70;;;;;;6272411;22;20184;-86
2022/03/18 01:19:48;;;;;;;11.83;5.23;;;7.20;99.60;;;;;;6274409;22;20144;-87
2022/03/18 01:22:14;;;;;;;11.00;5.40;;;7.20;99.60;;;;;;6276256;22;20160;-87
2022/03/18 01:24:40;;;;;;;8.77;5.30;;;7.20;99.60;;;;;;6276504;22;20172;-87
2022/03/18 01:27:06;;;;;;;15.53;5.93;;;7.10;99.70;;;;;;6276442;22;20597;-87
2022/03/18 01:29:32;;;;;;;11.17;6.47;;;7.20;99.90;;;;;;6276461;22;20181;-87
2022/03/18 01:31:59;;;;;;;10.70;6.50;;;7.20;99.70;;;;;;6276360;22;20152;-87
2022/03/18 01:34:25;;;;;;;15.13;7.03;;;7.20;99.80;;;;;;6276154;22;20150;-87
2022/03/18 01:36:51;;;;;;;16.10;6.97;;;7.10;99.90;;;;;;6275301;22;20167;-87
2022/03/18 01:39:17;;;;;;;14.50;6.87;;;7.10;99.90;;;;;;6275652;22;20140;-87
2022/03/18 01:41:43;;;;;;;13.67;5.77;;;7.20;99.90;;;;;;6275742;22;20160;-87
2022/03/18 01:44:10;;;;;;;11.13;6.93;;;7.20;99.90;;;;;;6276861;22;20167;-87
2022/03/18 01:46:39;;;;;;;10.47;6.47;;;7.10;99.90;;;;;;6278040;22;20168;-87
2022/03/18 01:49:06;;;;;;;14.80;6.40;;;7.20;99.90;;;;;;6276316;22;20151;-87
2022/03/18 01:51:33;;;;;;;16.13;6.63;;;7.20;99.90;;;;;;6276133;22;20242;-87
2022/03/18 01:56:44;;;;;;;13.10;7.27;;;7.00;99.90;;;;;;6277456;22;20165;-87
2022/03/18 01:59:13;;;;;;;12.40;6.40;;;7.00;99.90;;;;;;6276171;22;20190;-87
2022/03/18 02:01:40;;;;;;;13.80;6.50;;;6.90;99.90;;;;;;6276069;22;20156;-87
2022/03/18 02:04:06;;;;;;;16.50;6.50;;;6.80;99.90;;;;;;6275952;22;20149;-86
2022/03/18 02:06:32;;;;;;;13.70;5.63;;;6.90;99.90;;;;;;6276398;22;20145;-87
2022/03/18 02:08:58;;;;;;;15.43;6.27;;;6.90;99.90;;;;;;6276010;22;20145;-86
2022/03/18 02:11:28;;;;;;;14.73;6.63;;;6.80;99.90;;;;;;6275809;22;20156;-86
2022/03/18 02:13:57;;;;;;;13.40;7.17;;;6.90;99.90;;;;;;6275870;22;20164;-86
2022/03/18 02:16:23;;;;;;;17.10;6.40;;;7.00;99.90;;;;;;6275759;22;20151;-87
2022/03/18 02:18:49;;;;;;;14.80;6.40;;;7.10;99.90;;;;;;6275670;22;20275;-86
2022/03/18 02:21:15;;;;;;;13.33;7.03;;;6.90;99.90;;;;;;6276330;22;20163;-87
2022/03/18 02:23:41;;;;;;;16.17;6.43;;;7.00;99.90;;;;;;6275957;22;20186;-87
2022/03/18 02:26:07;;;;;;;10.87;6.43;;;7.00;99.90;;;;;;6275758;22;20512;-87
2022/03/18 02:28:32;;;;;;;10.47;6.53;;;7.00;99.90;;;;;;6275717;22;20180;-87
2022/03/18 02:30:58;;;;;;;11.70;6.63;;;6.90;99.90;;;;;;6275653;22;20164;-86
2022/03/18 02:33:24;;;;;;;12.30;6.47;;;6.80;99.90;;;;;;6275403;22;20614;-87
2022/03/18 02:35:56;;;;;;;14.33;6.17;;;6.70;99.90;;;;;;6275690;22;20699;-87
2022/03/18 02:38:21;;;;;;;17.43;6.30;;;6.60;99.90;;;;;;6275573;22;20180;-86
2022/03/18 02:40:47;;;;;;;9.23;6.70;;;6.50;99.90;;;;;;6275833;22;20561;-86
2022/03/18 02:43:12;;;;;;;18.00;7.33;;;6.50;99.90;;;;;;6275427;22;20160;-87
2022/03/18 02:45:38;;;;;;;14.33;6.47;;;6.60;99.90;;;;;;6274064;22;20145;-86
2022/03/18 02:48:04;;;;;;;16.80;6.73;;;6.60;99.90;;;;;;6274558;22;20144;-86
2022/03/18 02:50:30;;;;;;;14.93;7.37;;;6.60;99.90;;;;;;6275158;22;20140;-86
2022/03/18 02:52:55;;;;;;;14.73;7.13;;;6.60;99.90;;;;;;6275480;22;20179;-86
2022/03/18 02:55:21;;;;;;;14.07;7.37;;;6.70;99.90;;;;;;6275218;22;20640;-86
2022/03/18 02:57:47;;;;;;;14.27;6.43;;;6.50;99.90;;;;;;6275591;22;20171;-86
2022/03/18 03:00:13;;;;;;;11.33;6.97;;;6.40;99.90;;;;;;6275270;22;20203;-86
2022/03/18 03:02:39;;;;;;;15.17;6.97;;;6.30;99.90;;;;;;6275568;22;20197;-86
2022/03/18 03:08:01;;;;;;;9.80;6.60;;;6.30;99.90;;;;;;6276832;22;20287;-86
2022/03/18 03:10:36;;;;;;;13.23;7.67;;;6.20;99.90;;;;;;6275369;22;20142;-86
2022/03/18 03:13:06;;;;;;;12.70;6.83;;;6.10;99.90;;;;;;6275098;22;20195;-86
2022/03/18 03:15:32;;;;;;;13.03;6.67;;;6.00;99.90;;;;;;6275203;22;20202;-86
2022/03/18 03:17:57;;;;;;;14.33;6.90;;;5.90;99.90;;;;;;6275259;22;20501;-85
2022/03/18 03:20:23;;;;;;;17.53;7.93;;;5.90;99.90;;;;;;6275501;22;20166;-86
2022/03/18 03:22:49;;;;;;;17.97;7.83;;;5.90;99.90;;;;;;6275165;22;20144;-86
2022/03/18 03:25:14;;;;;;;13.20;7.67;;;5.90;99.90;;;;;;6275334;22;20170;-86
2022/03/18 03:27:40;;;;;;;17.33;7.97;;;6.00;99.90;;;;;;6275206;22;20140;-86
2022/03/18 03:30:08;;;;;;;19.97;8.47;;;6.00;99.90;;;;;;6274885;22;20170;-85
2022/03/18 03:32:34;;;;;;;18.03;8.77;;;6.00;99.90;;;;;;6275120;22;20142;-86
2022/03/18 03:35:00;;;;;;;20.13;9.57;;;5.90;99.90;;;;;;6275440;22;20170;-86
2022/03/18 03:37:27;;;;;;;20.70;9.13;;;5.90;99.90;;;;;;6275081;22;20198;-86
2022/03/18 03:39:53;;;;;;;20.17;8.73;;;6.00;99.90;;;;;;6275436;22;20138;-86
2022/03/18 03:42:19;;;;;;;17.77;9.20;;;6.00;99.90;;;;;;6275527;22;20171;-86
2022/03/18 03:44:45;;;;;;;16.63;8.73;;;6.00;99.90;;;;;;6274812;22;20140;-86
2022/03/18 03:47:11;;;;;;;21.57;8.63;;;5.90;99.90;;;;;;6275233;22;20208;-86
2022/03/18 03:49:37;;;;;;;17.03;8.33;;;5.90;99.90;;;;;;6275154;22;20160;-86
2022/03/18 03:52:03;;;;;;;19.37;9.53;;;5.90;99.90;;;;;;6275207;22;20545;-86
2022/03/18 03:54:29;;;;;;;17.17;9.03;;;6.00;99.90;;;;;;6275100;22;20168;-86
2022/03/18 03:56:58;;;;;;;14.63;8.67;;;6.10;99.90;;;;;;6275200;22;20147;-86
2022/03/18 03:59:24;;;;;;;20.60;9.63;;;6.20;99.90;;;;;;6274970;22;20146;-86
2022/03/18 04:01:49;;;;;;;18.63;9.10;;;6.10;99.90;;;;;;6275332;22;20592;-86
2022/03/18 04:04:16;;;;;;;17.47;10.30;;;6.20;99.90;;;;;;6275251;22;20147;-85
2022/03/18 04:06:42;;;;;;;18.70;10.00;;;6.10;99.90;;;;;;6276974;22;20148;-85
2022/03/18 04:09:07;;;;;;;22.50;11.73;;;6.00;99.90;;;;;;6277056;22;20165;-86
2022/03/18 04:11:33;;;;;;;20.97;10.20;;;6.20;99.90;;;;;;6276821;22;20168;-85
2022/03/18 04:13:59;;;;;;;18.73;10.43;;;6.10;99.90;;;;;;6276870;22;20599;-85
2022/03/18 04:16:24;;;;;;;14.97;9.87;;;6.10;99.90;;;;;;6276958;22;20152;-85
2022/03/18 04:18:50;;;;;;;16.70;10.47;;;6.00;99.90;;;;;;6276666;22;20228;-86
2022/03/18 04:21:16;;;;;;;18.80;9.57;;;5.90;99.90;;;;;;6276779;22;20143;-85
2022/03/18 04:23:43;;;;;;;19.10;10.30;;;6.00;99.90;;;;;;6276860;22;20638;-86
2022/03/18 04:26:09;;;;;;;17.10;10.13;;;6.20;99.90;;;;;;6276812;22;20143;-86
2022/03/18 04:28:35;;;;;;;23.50;11.30;;;6.20;99.90;;;;;;6276562;22;20461;-86
2022/03/18 04:31:00;;;;;;;18.23;9.50;;;6.00;99.90;;;;;;6277038;22;20146;-86
2022/03/18 04:33:26;;;;;;;17.60;9.93;;;5.90;99.90;;;;;;6277086;22;20147;-86
2022/03/18 04:35:52;;;;;;;23.80;10.47;;;5.80;99.90;;;;;;6277324;22;20614;-86
2022/03/18 04:38:18;;;;;;;17.27;8.97;;;5.80;99.90;;;;;;6278539;22;20229;-86
2022/03/18 04:40:44;;;;;;;17.40;9.70;;;5.80;99.90;;;;;;6277530;22;20135;-86
2022/03/18 04:43:09;;;;;;;19.20;9.97;;;5.70;99.90;;;;;;6276675;22;20179;-86
2022/03/18 04:45:35;;;;;;;16.30;9.57;;;5.70;99.90;;;;;;6276843;22;20142;-86
2022/03/18 05:19:38;;;;;;;;;;;;;;;;;;;;;
2022/03/18 05:22:15;;;;;;;21.17;10.13;;;5.60;99.90;;;;;;6267588;22;20155;-92
2022/03/18 05:25:18;;;;;;;;;;;;;;;;;;;;;
2022/03/18 05:31:25;;;;;;;;;;;;;;;;;;;;;
2022/03/18 05:40:33;;;;;;;13.83;9.83;;;5.30;99.90;;;;;;6246804;22;20151;-92
2022/03/18 05:42:58;;;;;;;14.77;9.27;;;5.20;99.90;;;;;;6246062;23;20463;-91
2022/03/18 05:45:26;;;;;;;17.87;9.47;;;5.20;99.90;;;;;;6246329;23;20197;-91
2022/03/18 05:47:52;;;;;;;17.97;10.70;;;5.30;99.90;;;;;;6246441;23;20151;-91
2022/03/18 05:50:20;;;;;;;17.13;9.53;;;5.30;99.90;;;;;;6245789;23;20155;-91
2022/03/18 05:52:45;;;;;;;20.40;10.83;;;5.30;99.90;;;;;;6246186;23;20144;-92
2022/03/18 05:55:13;;;;;;;20.33;10.47;;;5.30;99.90;;;;;;6248885;23;20164;-91
2022/03/18 05:57:39;;;;;;;18.43;10.63;;;5.20;99.90;;;;;;6246531;23;20176;-91
2022/03/18 06:00:06;;;;;;;21.30;10.73;;;5.10;99.90;;;;;;6246137;23;20147;-91
2022/03/18 06:02:33;;;;;;;15.53;10.27;;;5.00;99.90;;;;;;6247120;22;20139;-91
2022/03/18 06:05:08;;;;;;;21.90;10.47;;;5.20;99.90;;;;;;6246009;23;20230;-91
2022/03/18 06:07:36;;;;;;;17.17;9.43;;;5.10;99.90;;;;;;6245327;23;20694;-91
2022/03/18 06:12:49;;;;;;;20.07;10.50;;;5.30;99.90;;;;;;6247099;23;20158;-92
2022/03/18 06:15:15;;;;;;;19.27;10.53;;;5.30;99.90;;;;;;6245726;23;20217;-91
2022/03/18 06:17:43;;;;;;;18.77;10.43;;;5.20;99.90;;;;;;6245629;23;20521;-92
2022/03/18 06:20:12;;;;;;;19.37;10.33;;;5.20;99.90;;;;;;6246017;23;20151;-91
2022/03/18 06:22:37;;;;;;;21.77;10.87;;;5.20;99.90;;;;;;6245897;23;20143;-92
2022/03/18 06:25:04;;;;;;;15.83;10.83;;;5.20;99.90;;;;;;6245513;23;20603;-91
2022/03/18 06:27:30;;;;;;;20.03;11.00;;;5.00;99.90;;;;;;6245676;23;20149;-91
2022/03/18 06:30:19;;;;;;;22.97;10.47;;;5.00;99.90;;;;;;6245699;23;20144;-94
2022/03/18 06:32:53;;;;;;;18.60;10.53;;;5.10;99.90;;;;;;6245939;23;20575;-92
2022/03/18 06:40:41;;;;;;;19.67;13.03;;;5.30;99.90;;;;;;6120655;23;20491;-93
2022/03/18 10:45:27;;;;;;;8.37;3.13;;;12.00;90.50;;;;;;6276056;22;20210;-93
2022/03/18 11:35:06;;;;;;;3.30;2.23;;;24.60;61.20;;;;;;6276547;22;20229;-92
2022/03/18 11:37:33;;;;;;;5.53;2.23;;;25.10;60.00;;;;;;6277433;22;20173;-91
2022/03/18 11:40:23;;;;;;;5.20;2.43;;;25.30;59.30;;;;;;6278523;22;20571;-91
2022/03/18 11:42:49;;;;;;;9.13;2.70;;;25.80;58.20;;;;;;6279972;22;20150;-89
2022/03/18 11:45:44;;;;;;;4.53;2.50;;;26.00;58.00;;;;;;6279983;22;20617;-92
2022/03/18 11:48:56;;;;;;;5.43;2.07;;;26.40;57.60;;;;;;6252330;22;20150;-92
2022/03/18 11:51:25;;;;;;;4.17;2.17;;;26.70;56.70;;;;;;6271441;22;20150;-91
2022/03/18 11:53:53;;;;;;;5.03;1.80;;;27.00;55.10;;;;;;6277064;22;20583;-92
2022/03/18 11:56:21;;;;;;;5.35;2.25;;;27.40;54.30;;;;;;6278314;22;20508;-92
2022/03/18 11:58:47;;;;;;;5.18;2.60;;;27.30;54.40;;;;;;6276330;22;20208;-92
2022/03/18 12:12:32;;;;;;;;;;;;;;;;;;;;;
2022/03/18 12:22:53;;;;;;;;;;;;;;;;;;;;;
2022/03/18 12:29:15;;;;;;;4.25;1.70;;;30.40;48.50;;;;;;6264684;22;20586;-94
2022/03/18 12:32:16;;;;;;;;;;;;;;;;;;;;;
2022/03/18 12:38:56;;;;;;;;;;;;;;;;;;;;;
2022/03/18 12:53:05;;;;;;;5.40;2.10;;;32.10;44.70;;;;;;6159387;22;20158;-94
2022/03/18 19:07:43;;;;;;;6.17;3.00;;;17.60;60.40;;;;;;6279532;22;20166;-90
2022/03/18 19:10:09;;;;;;;7.33;3.20;;;17.60;60.50;;;;;;6209887;23;20190;-84
2022/03/18 19:12:36;;;;;;;7.80;3.37;;;17.40;61.00;;;;;;6218010;23;20235;-85
2022/03/18 19:15:02;;;;;;;6.40;3.00;;;17.30;61.50;;;;;;6218972;23;20154;-85
2022/03/18 19:17:29;;;;;;;5.20;2.60;;;17.20;61.70;;;;;;6218694;23;20325;-85
2022/03/18 19:19:55;;;;;;;9.67;3.10;;;17.10;62.00;;;;;;6218067;23;20151;-86
2022/03/18 19:22:22;;;;;;;7.37;3.40;;;17.20;62.00;;;;;;6220036;23;20181;-87
2022/03/18 19:24:49;;;;;;;6.73;3.13;;;17.10;62.10;;;;;;6220828;23;20193;-87
2022/03/18 19:27:15;;;;;;;10.03;3.40;;;17.00;62.30;;;;;;6218766;23;20143;-87
2022/03/18 19:29:41;;;;;;;7.87;3.53;;;17.00;62.60;;;;;;6218776;23;20182;-86
2022/03/18 19:34:51;;;;;;;7.33;3.60;;;16.90;62.90;;;;;;6245359;22;20585;-87
2022/03/18 19:37:17;;;;;;;6.70;3.77;;;16.70;63.30;;;;;;6218574;23;20155;-87
2022/03/18 19:39:43;;;;;;;9.43;3.67;;;16.60;63.60;;;;;;6218604;23;20191;-87
2022/03/18 19:42:08;;;;;;;6.83;3.40;;;16.50;63.80;;;;;;6218611;23;20228;-86
2022/03/18 21:31:52;;;;;;;9.47;4.80;;;14.40;71.80;;;;;;6279375;22;20208;-89
2022/03/18 21:34:18;;;;;;;11.73;5.80;;;14.50;71.70;;;;;;6277723;22;20168;-88
2022/03/18 21:36:46;;;;;;;9.33;5.07;;;14.50;72.00;;;;;;6276838;22;20158;-87
2022/03/18 21:39:13;;;;;;;8.47;5.00;;;14.40;72.20;;;;;;6277905;22;20194;-90
2022/03/18 21:41:38;;;;;;;8.27;4.90;;;14.30;72.40;;;;;;6276874;22;20600;-90
2022/03/18 21:44:05;;;;;;;11.97;4.97;;;14.20;72.90;;;;;;6277777;22;20153;-90
2022/03/18 21:46:32;;;;;;;6.83;4.60;;;14.10;74.00;;;;;;6277583;22;20179;-89
2022/03/18 21:49:01;;;;;;;10.60;4.63;;;14.00;73.40;;;;;;6277985;22;20202;-90
2022/03/18 21:51:30;;;;;;;8.67;4.90;;;13.90;73.90;;;;;;6277168;22;20152;-89
2022/03/18 21:53:56;;;;;;;10.40;5.43;;;14.00;74.00;;;;;;6276616;22;20581;-89
2022/03/18 21:56:22;;;;;;;9.03;5.17;;;14.10;73.70;;;;;;6277088;22;20153;-89
2022/03/18 21:58:49;;;;;;;13.60;5.20;;;13.90;74.10;;;;;;6276546;22;20286;-89
2022/03/18 22:01:15;;;;;;;8.67;5.17;;;13.90;74.00;;;;;;6276971;22;20171;-88
2022/03/18 22:03:42;;;;;;;6.23;4.63;;;13.90;74.20;;;;;;6277407;22;20148;-88
2022/03/18 22:06:07;;;;;;;9.43;5.13;;;13.80;74.60;;;;;;6277083;22;20155;-89
2022/03/18 22:08:33;;;;;;;7.70;4.83;;;13.70;74.80;;;;;;6276952;22;20152;-89
2022/03/18 22:10:59;;;;;;;12.20;5.73;;;13.80;74.90;;;;;;6277118;22;20227;-88
2022/03/18 22:13:24;;;;;;;9.50;4.73;;;13.70;74.80;;;;;;6276644;22;20158;-88
2022/03/18 22:15:50;;;;;;;12.87;5.17;;;13.70;75.40;;;;;;6276805;22;20230;-89
2022/03/18 22:18:16;;;;;;;7.30;4.60;;;13.60;75.50;;;;;;6277171;22;20558;-89
2022/03/18 22:20:43;;;;;;;9.93;5.23;;;13.60;75.50;;;;;;6276811;22;20155;-89
2022/03/18 22:23:08;;;;;;;9.70;5.33;;;13.70;75.30;;;;;;6278714;22;20476;-88
2022/03/18 22:25:34;;;;;;;8.63;4.97;;;13.60;75.60;;;;;;6277432;22;20173;-88
2022/03/18 22:28:00;;;;;;;9.47;4.60;;;13.50;75.80;;;;;;6277733;22;20151;-89
2022/03/18 22:30:25;;;;;;;11.73;5.37;;;13.50;75.90;;;;;;6277677;22;20567;-90
2022/03/18 22:32:51;;;;;;;11.17;5.27;;;13.50;76.20;;;;;;6277568;22;20647;-88
2022/03/18 22:35:16;;;;;;;9.07;4.87;;;13.30;76.50;;;;;;6276565;22;20149;-88
2022/03/18 22:37:43;;;;;;;11.10;5.90;;;13.30;76.90;;;;;;6277233;22;20156;-88
2022/03/18 22:40:14;;;;;;;9.53;5.13;;;13.30;77.00;;;;;;6277458;22;20163;-88
2022/03/18 22:42:42;;;;;;;13.00;5.37;;;13.40;76.80;;;;;;6277237;22;20148;-88
2022/03/18 22:45:08;;;;;;;8.83;5.20;;;13.30;76.80;;;;;;6277299;22;20152;-88
2022/03/18 22:47:34;;;;;;;8.30;4.57;;;13.30;77.10;;;;;;6276208;22;20152;-89
2022/03/18 22:50:04;;;;;;;10.00;4.90;;;13.40;76.80;;;;;;6276717;22;20152;-89
2022/03/18 22:52:32;;;;;;;9.03;4.90;;;13.30;77.00;;;;;;6277240;22;20474;-89
2022/03/18 22:54:58;;;;;;;10.90;5.80;;;13.40;77.10;;;;;;6277670;22;20158;-90
2022/03/18 22:57:24;;;;;;;10.97;5.20;;;13.30;77.20;;;;;;6278742;22;20226;-90
2022/03/18 22:59:49;;;;;;;11.80;5.27;;;13.20;77.80;;;;;;6278156;22;20183;-90
2022/03/18 23:02:15;;;;;;;14.00;5.50;;;13.00;78.30;;;;;;6275002;22;20156;-88
2022/03/18 23:04:41;;;;;;;7.93;5.10;;;13.10;78.30;;;;;;6275709;22;20469;-91
2022/03/18 23:07:07;;;;;;;10.40;5.50;;;13.00;78.30;;;;;;6275553;22;20155;-89
2022/03/18 23:09:33;;;;;;;11.37;5.73;;;13.10;78.20;;;;;;6275872;22;20151;-89
2022/03/18 23:12:08;;;;;;;8.03;5.50;;;13.00;78.70;;;;;;6276102;22;20230;-90
2022/03/18 23:14:35;;;;;;;9.13;5.50;;;13.00;78.60;;;;;;6276366;22;20605;-91
2022/03/18 23:17:01;;;;;;;11.83;5.90;;;13.10;78.40;;;;;;6276547;22;20174;-90
2022/03/18 23:19:26;;;;;;;9.37;5.23;;;12.90;78.90;;;;;;6275624;22;20616;-89
2022/03/18 23:21:52;;;;;;;16.90;8.27;;;12.90;79.00;;;;;;6276294;22;20149;-87
2022/03/18 23:24:17;;;;;;;10.10;5.73;;;12.80;79.40;;;;;;6275808;22;20196;-89
2022/03/18 23:26:43;;;;;;;11.50;5.60;;;12.80;79.90;;;;;;6275757;22;20649;-83
2022/03/18 23:29:09;;;;;;;10.13;6.00;;;12.70;80.70;;;;;;6273459;22;20172;-83
2022/03/18 23:31:36;;;;;;;11.90;5.40;;;12.80;80.30;;;;;;6274053;22;20205;-84
2022/03/18 23:34:01;;;;;;;12.83;5.90;;;12.70;80.60;;;;;;6273885;22;20167;-85
2022/03/18 23:36:27;;;;;;;9.93;4.90;;;12.70;80.40;;;;;;6274151;22;20151;-84
2022/03/18 23:38:54;;;;;;;13.00;5.40;;;12.70;81.40;;;;;;6272394;22;20518;-85
2022/03/18 23:41:20;;;;;;;11.77;5.63;;;12.70;80.90;;;;;;6272435;22;20230;-85
2022/03/18 23:43:46;;;;;;;14.30;5.57;;;12.60;82.10;;;;;;6274152;22;20150;-84
2022/03/18 23:46:12;;;;;;;19.13;6.03;;;12.70;80.80;;;;;;6274025;22;20641;-85
2022/03/18 23:48:38;;;;;;;11.77;6.20;;;12.70;81.40;;;;;;6273997;22;20147;-83
2022/03/18 23:51:04;;;;;;;10.00;5.47;;;12.70;81.00;;;;;;6274614;22;20591;-85
2022/03/18 23:53:30;;;;;;;9.63;5.43;;;12.60;81.70;;;;;;6274374;22;20150;-84
2022/03/18 23:55:55;;;;;;;9.80;5.47;;;12.60;81.20;;;;;;6274328;22;20161;-84
2022/03/18 23:58:21;;;;;;;12.63;5.73;;;12.60;81.20;;;;;;6274257;22;20186;-84
